sensor_id;sensor_type;location;lat;lon;timestamp;P1;durP1;ratioP1;P2;durP2;ratioP2
76477;SDS011;65309;49.790;18.972;2022-12-18T00:00:38;35.90;;;15.10;;
76477;SDS011;65309;49.790;18.972;2022-12-18T00:06:02;27.52;;;11.73;;
76477;SDS011;65309;49.790;18.972;2022-12-18T00:11:06;32.00;;;13.48;;
76477;SDS011;65309;49.790;18.972;2022-12-18T00:16:10;27.27;;;8.95;;
76477;SDS011;65309;49.790;18.972;2022-12-18T00:21:14;18.52;;;10.57;;
76477;SDS011;65309;49.790;18.972;2022-12-18T00:26:18;15.10;;;8.82;;
76477;SDS011;65309;49.790;18.972;2022-12-18T00:31:22;29.27;;;12.13;;
76477;SDS011;65309;49.790;18.972;2022-12-18T00:36:26;41.60;;;15.02;;
76477;SDS011;65309;49.790;18.972;2022-12-18T00:41:31;27.17;;;11.10;;
76477;SDS011;65309;49.790;18.972;2022-12-18T00:46:52;30.73;;;14.75;;
76477;SDS011;65309;49.790;18.972;2022-12-18T00:51:54;22.15;;;10.40;;
76477;SDS011;65309;49.790;18.972;2022-12-18T00:56:57;24.45;;;12.05;;
76477;SDS011;65309;49.790;18.972;2022-12-18T01:01:59;23.98;;;9.63;;
76477;SDS011;65309;49.790;18.972;2022-12-18T01:07:01;51.05;;;20.40;;
76477;SDS011;65309;49.790;18.972;2022-12-18T01:12:05;25.50;;;11.60;;
76477;SDS011;65309;49.790;18.972;2022-12-18T01:17:07;26.15;;;13.45;;
76477;SDS011;65309;49.790;18.972;2022-12-18T01:22:09;35.50;;;10.35;;
76477;SDS011;65309;49.790;18.972;2022-12-18T01:27:13;27.08;;;12.93;;
76477;SDS011;65309;49.790;18.972;2022-12-18T01:32:15;23.23;;;10.23;;
76477;SDS011;65309;49.790;18.972;2022-12-18T01:37:16;32.88;;;13.68;;
76477;SDS011;65309;49.790;18.972;2022-12-18T01:42:20;28.55;;;14.15;;
76477;SDS011;65309;49.790;18.972;2022-12-18T01:47:23;22.10;;;12.10;;
76477;SDS011;65309;49.790;18.972;2022-12-18T01:52:28;25.38;;;10.40;;
76477;SDS011;65309;49.790;18.972;2022-12-18T01:57:33;33.65;;;13.07;;
76477;SDS011;65309;49.790;18.972;2022-12-18T02:02:36;21.67;;;12.55;;
76477;SDS011;65309;49.790;18.972;2022-12-18T02:07:42;25.38;;;8.30;;
76477;SDS011;65309;49.790;18.972;2022-12-18T02:12:54;27.25;;;11.20;;
76477;SDS011;65309;49.790;18.972;2022-12-18T02:18:01;23.85;;;11.60;;
76477;SDS011;65309;49.790;18.972;2022-12-18T02:23:11;23.65;;;9.77;;
76477;SDS011;65309;49.790;18.972;2022-12-18T02:28:23;30.65;;;16.15;;
76477;SDS011;65309;49.790;18.972;2022-12-18T02:33:29;30.85;;;11.07;;
76477;SDS011;65309;49.790;18.972;2022-12-18T02:38:33;40.88;;;20.33;;
76477;SDS011;65309;49.790;18.972;2022-12-18T02:43:37;30.65;;;12.65;;
76477;SDS011;65309;49.790;18.972;2022-12-18T02:48:40;18.80;;;10.98;;
76477;SDS011;65309;49.790;18.972;2022-12-18T02:53:43;21.85;;;8.55;;
76477;SDS011;65309;49.790;18.972;2022-12-18T02:58:54;27.75;;;12.55;;
76477;SDS011;65309;49.790;18.972;2022-12-18T03:04:01;9.35;;;6.43;;
76477;SDS011;65309;49.790;18.972;2022-12-18T03:14:17;29.02;;;11.68;;
76477;SDS011;65309;49.790;18.972;2022-12-18T03:19:24;23.60;;;5.13;;
76477;SDS011;65309;49.790;18.972;2022-12-18T03:24:29;19.80;;;8.00;;
76477;SDS011;65309;49.790;18.972;2022-12-18T03:29:35;29.00;;;11.35;;
76477;SDS011;65309;49.790;18.972;2022-12-18T03:34:40;46.80;;;10.60;;
76477;SDS011;65309;49.790;18.972;2022-12-18T03:39:43;22.23;;;9.27;;
76477;SDS011;65309;49.790;18.972;2022-12-18T03:44:50;9.35;;;6.30;;
76477;SDS011;65309;49.790;18.972;2022-12-18T03:50:00;21.20;;;11.30;;
76477;SDS011;65309;49.790;18.972;2022-12-18T03:55:13;11.48;;;9.57;;
76477;SDS011;65309;49.790;18.972;2022-12-18T04:00:17;23.55;;;9.38;;
76477;SDS011;65309;49.790;18.972;2022-12-18T04:05:20;10.23;;;7.53;;
76477;SDS011;65309;49.790;18.972;2022-12-18T04:10:25;8.77;;;4.82;;
76477;SDS011;65309;49.790;18.972;2022-12-18T04:15:29;15.10;;;7.70;;
76477;SDS011;65309;49.790;18.972;2022-12-18T04:20:33;30.88;;;10.50;;
76477;SDS011;65309;49.790;18.972;2022-12-18T04:25:34;16.92;;;9.20;;
76477;SDS011;65309;49.790;18.972;2022-12-18T04:30:38;23.15;;;12.38;;
76477;SDS011;65309;49.790;18.972;2022-12-18T04:35:40;27.48;;;11.80;;
76477;SDS011;65309;49.790;18.972;2022-12-18T04:40:42;36.88;;;14.75;;
76477;SDS011;65309;49.790;18.972;2022-12-18T04:45:46;20.85;;;11.70;;
76477;SDS011;65309;49.790;18.972;2022-12-18T04:50:48;16.90;;;7.10;;
76477;SDS011;65309;49.790;18.972;2022-12-18T04:55:50;25.38;;;10.40;;
76477;SDS011;65309;49.790;18.972;2022-12-18T05:00:53;17.10;;;9.43;;
76477;SDS011;65309;49.790;18.972;2022-12-18T05:05:55;24.52;;;10.10;;
76477;SDS011;65309;49.790;18.972;2022-12-18T05:11:00;39.17;;;12.15;;
76477;SDS011;65309;49.790;18.972;2022-12-18T05:16:05;23.23;;;5.93;;
76477;SDS011;65309;49.790;18.972;2022-12-18T05:21:08;20.58;;;7.80;;
76477;SDS011;65309;49.790;18.972;2022-12-18T05:26:10;16.95;;;9.20;;
76477;SDS011;65309;49.790;18.972;2022-12-18T05:31:18;13.57;;;7.00;;
76477;SDS011;65309;49.790;18.972;2022-12-18T05:36:20;21.95;;;8.75;;
76477;SDS011;65309;49.790;18.972;2022-12-18T05:41:22;21.25;;;10.25;;
76477;SDS011;65309;49.790;18.972;2022-12-18T05:46:26;15.68;;;6.60;;
76477;SDS011;65309;49.790;18.972;2022-12-18T05:51:28;22.17;;;9.02;;
76477;SDS011;65309;49.790;18.972;2022-12-18T05:56:30;18.85;;;10.63;;
76477;SDS011;65309;49.790;18.972;2022-12-18T06:01:33;16.70;;;5.68;;
76477;SDS011;65309;49.790;18.972;2022-12-18T06:06:35;13.75;;;8.68;;
76477;SDS011;65309;49.790;18.972;2022-12-18T06:11:38;16.65;;;9.98;;
76477;SDS011;65309;49.790;18.972;2022-12-18T06:16:41;21.08;;;6.82;;
76477;SDS011;65309;49.790;18.972;2022-12-18T06:21:43;13.35;;;7.97;;
76477;SDS011;65309;49.790;18.972;2022-12-18T06:26:45;21.08;;;7.68;;
76477;SDS011;65309;49.790;18.972;2022-12-18T06:31:49;23.20;;;10.57;;
76477;SDS011;65309;49.790;18.972;2022-12-18T06:36:51;14.63;;;7.95;;
76477;SDS011;65309;49.790;18.972;2022-12-18T06:41:53;35.78;;;8.52;;
76477;SDS011;65309;49.790;18.972;2022-12-18T06:46:56;12.00;;;6.15;;
76477;SDS011;65309;49.790;18.972;2022-12-18T06:51:58;8.27;;;5.00;;
76477;SDS011;65309;49.790;18.972;2022-12-18T06:57:00;20.80;;;9.68;;
76477;SDS011;65309;49.790;18.972;2022-12-18T07:02:04;21.27;;;9.52;;
76477;SDS011;65309;49.790;18.972;2022-12-18T07:07:06;16.67;;;9.13;;
76477;SDS011;65309;49.790;18.972;2022-12-18T07:12:08;22.02;;;12.93;;
76477;SDS011;65309;49.790;18.972;2022-12-18T07:17:11;21.48;;;9.82;;
76477;SDS011;65309;49.790;18.972;2022-12-18T07:22:13;18.65;;;9.10;;
76477;SDS011;65309;49.790;18.972;2022-12-18T07:27:15;19.05;;;8.50;;
76477;SDS011;65309;49.790;18.972;2022-12-18T07:32:18;8.88;;;4.75;;
76477;SDS011;65309;49.790;18.972;2022-12-18T07:37:20;14.00;;;7.78;;
76477;SDS011;65309;49.790;18.972;2022-12-18T07:42:22;12.60;;;7.90;;
76477;SDS011;65309;49.790;18.972;2022-12-18T07:47:35;23.05;;;10.75;;
76477;SDS011;65309;49.790;18.972;2022-12-18T07:52:38;15.00;;;8.85;;
76477;SDS011;65309;49.790;18.972;2022-12-18T07:57:40;12.20;;;4.75;;
76477;SDS011;65309;49.790;18.972;2022-12-18T08:02:52;18.92;;;8.02;;
76477;SDS011;65309;49.790;18.972;2022-12-18T08:07:55;8.95;;;6.30;;
76477;SDS011;65309;49.790;18.972;2022-12-18T08:12:57;29.38;;;8.25;;
76477;SDS011;65309;49.790;18.972;2022-12-18T08:18:07;11.48;;;6.05;;
76477;SDS011;65309;49.790;18.972;2022-12-18T08:23:14;12.13;;;6.10;;
76477;SDS011;65309;49.790;18.972;2022-12-18T08:28:16;12.73;;;5.45;;
76477;SDS011;65309;49.790;18.972;2022-12-18T08:33:20;14.32;;;6.93;;
76477;SDS011;65309;49.790;18.972;2022-12-18T08:38:22;25.05;;;8.60;;
76477;SDS011;65309;49.790;18.972;2022-12-18T08:43:25;15.10;;;6.72;;
76477;SDS011;65309;49.790;18.972;2022-12-18T08:48:47;11.50;;;7.55;;
76477;SDS011;65309;49.790;18.972;2022-12-18T08:53:51;10.25;;;8.55;;
76477;SDS011;65309;49.790;18.972;2022-12-18T08:58:54;8.65;;;6.35;;
76477;SDS011;65309;49.790;18.972;2022-12-18T09:03:57;19.10;;;7.60;;
76477;SDS011;65309;49.790;18.972;2022-12-18T09:08:59;17.73;;;8.90;;
76477;SDS011;65309;49.790;18.972;2022-12-18T09:14:02;14.13;;;7.43;;
76477;SDS011;65309;49.790;18.972;2022-12-18T09:19:06;17.80;;;7.55;;
76477;SDS011;65309;49.790;18.972;2022-12-18T09:24:08;10.02;;;6.68;;
76477;SDS011;65309;49.790;18.972;2022-12-18T09:29:14;16.40;;;5.97;;
76477;SDS011;65309;49.790;18.972;2022-12-18T09:34:19;18.95;;;6.78;;
76477;SDS011;65309;49.790;18.972;2022-12-18T09:39:23;14.68;;;7.90;;
76477;SDS011;65309;49.790;18.972;2022-12-18T09:44:26;12.48;;;7.72;;
76477;SDS011;65309;49.790;18.972;2022-12-18T09:49:32;17.42;;;8.90;;
76477;SDS011;65309;49.790;18.972;2022-12-18T09:54:39;20.63;;;10.02;;
76477;SDS011;65309;49.790;18.972;2022-12-18T09:59:42;10.40;;;6.38;;
76477;SDS011;65309;49.790;18.972;2022-12-18T10:04:54;19.13;;;10.20;;
76477;SDS011;65309;49.790;18.972;2022-12-18T10:10:06;12.48;;;6.15;;
76477;SDS011;65309;49.790;18.972;2022-12-18T10:15:17;20.05;;;8.85;;
76477;SDS011;65309;49.790;18.972;2022-12-18T10:20:29;15.18;;;8.27;;
76477;SDS011;65309;49.790;18.972;2022-12-18T10:25:37;10.80;;;8.75;;
76477;SDS011;65309;49.790;18.972;2022-12-18T10:30:45;19.95;;;12.13;;
76477;SDS011;65309;49.790;18.972;2022-12-18T10:35:49;21.95;;;11.35;;
76477;SDS011;65309;49.790;18.972;2022-12-18T10:40:53;23.85;;;9.27;;
76477;SDS011;65309;49.790;18.972;2022-12-18T10:46:01;28.48;;;13.82;;
76477;SDS011;65309;49.790;18.972;2022-12-18T10:51:20;19.40;;;10.95;;
76477;SDS011;65309;49.790;18.972;2022-12-18T10:56:24;31.63;;;15.40;;
76477;SDS011;65309;49.790;18.972;2022-12-18T11:01:28;29.20;;;12.07;;
76477;SDS011;65309;49.790;18.972;2022-12-18T11:11:58;23.88;;;12.48;;
76477;SDS011;65309;49.790;18.972;2022-12-18T11:17:01;38.97;;;15.43;;
76477;SDS011;65309;49.790;18.972;2022-12-18T11:22:25;22.58;;;14.52;;
76477;SDS011;65309;49.790;18.972;2022-12-18T11:27:29;28.98;;;13.82;;
76477;SDS011;65309;49.790;18.972;2022-12-18T11:32:32;30.33;;;12.88;;
76477;SDS011;65309;49.790;18.972;2022-12-18T11:37:38;35.65;;;14.57;;
76477;SDS011;65309;49.790;18.972;2022-12-18T11:42:45;18.80;;;11.05;;
76477;SDS011;65309;49.790;18.972;2022-12-18T11:47:54;27.60;;;13.82;;
76477;SDS011;65309;49.790;18.972;2022-12-18T11:53:00;29.38;;;10.90;;
76477;SDS011;65309;49.790;18.972;2022-12-18T11:58:09;15.82;;;10.38;;
76477;SDS011;65309;49.790;18.972;2022-12-18T12:03:21;22.45;;;10.88;;
76477;SDS011;65309;49.790;18.972;2022-12-18T12:08:35;32.28;;;15.15;;
76477;SDS011;65309;49.790;18.972;2022-12-18T12:13:49;21.20;;;12.00;;
76477;SDS011;65309;49.790;18.972;2022-12-18T12:19:03;12.15;;;6.90;;
76477;SDS011;65309;49.790;18.972;2022-12-18T12:24:22;15.00;;;7.72;;
76477;SDS011;65309;49.790;18.972;2022-12-18T12:29:39;18.25;;;8.98;;
76477;SDS011;65309;49.790;18.972;2022-12-18T12:34:53;11.45;;;6.72;;
76477;SDS011;65309;49.790;18.972;2022-12-18T12:40:13;28.58;;;11.30;;
76477;SDS011;65309;49.790;18.972;2022-12-18T12:45:40;20.67;;;13.20;;
76477;SDS011;65309;49.790;18.972;2022-12-18T12:50:47;16.25;;;9.88;;
76477;SDS011;65309;49.790;18.972;2022-12-18T12:55:51;14.45;;;10.73;;
76477;SDS011;65309;49.790;18.972;2022-12-18T13:00:55;18.92;;;9.38;;
76477;SDS011;65309;49.790;18.972;2022-12-18T13:06:08;25.75;;;11.15;;
76477;SDS011;65309;49.790;18.972;2022-12-18T13:11:26;27.40;;;13.57;;
76477;SDS011;65309;49.790;18.972;2022-12-18T13:17:15;28.35;;;10.55;;
76477;SDS011;65309;49.790;18.972;2022-12-18T13:22:28;14.23;;;8.80;;
76477;SDS011;65309;49.790;18.972;2022-12-18T13:27:57;13.48;;;7.60;;
76477;SDS011;65309;49.790;18.972;2022-12-18T13:39:20;6.80;;;4.43;;
76477;SDS011;65309;49.790;18.972;2022-12-18T13:44:35;20.55;;;6.85;;
76477;SDS011;65309;49.790;18.972;2022-12-18T13:49:43;7.80;;;4.10;;
76477;SDS011;65309;49.790;18.972;2022-12-18T13:54:47;19.38;;;7.60;;
76477;SDS011;65309;49.790;18.972;2022-12-18T13:59:54;14.75;;;6.45;;
76477;SDS011;65309;49.790;18.972;2022-12-18T14:04:56;25.27;;;9.38;;
76477;SDS011;65309;49.790;18.972;2022-12-18T14:09:59;10.77;;;4.63;;
76477;SDS011;65309;49.790;18.972;2022-12-18T14:15:30;20.95;;;5.95;;
76477;SDS011;65309;49.790;18.972;2022-12-18T14:20:35;9.50;;;5.68;;
76477;SDS011;65309;49.790;18.972;2022-12-18T14:25:45;6.90;;;4.07;;
76477;SDS011;65309;49.790;18.972;2022-12-18T14:30:49;9.25;;;4.22;;
76477;SDS011;65309;49.790;18.972;2022-12-18T14:35:53;5.13;;;3.72;;
76477;SDS011;65309;49.790;18.972;2022-12-18T14:40:57;3.85;;;3.50;;
76477;SDS011;65309;49.790;18.972;2022-12-18T14:46:02;9.52;;;2.33;;
76477;SDS011;65309;49.790;18.972;2022-12-18T14:51:14;4.18;;;2.83;;
76477;SDS011;65309;49.790;18.972;2022-12-18T14:56:19;2.40;;;1.88;;
76477;SDS011;65309;49.790;18.972;2022-12-18T15:01:25;6.47;;;2.88;;
76477;SDS011;65309;49.790;18.972;2022-12-18T15:06:31;10.55;;;3.97;;
76477;SDS011;65309;49.790;18.972;2022-12-18T15:11:36;8.90;;;3.80;;
76477;SDS011;65309;49.790;18.972;2022-12-18T15:16:51;7.57;;;3.55;;
76477;SDS011;65309;49.790;18.972;2022-12-18T15:21:54;6.38;;;1.88;;
76477;SDS011;65309;49.790;18.972;2022-12-18T15:26:58;0.95;;;0.85;;
76477;SDS011;65309;49.790;18.972;2022-12-18T15:32:03;4.15;;;3.10;;
76477;SDS011;65309;49.790;18.972;2022-12-18T15:37:17;1.17;;;1.08;;
76477;SDS011;65309;49.790;18.972;2022-12-18T15:42:20;1.50;;;1.40;;
76477;SDS011;65309;49.790;18.972;2022-12-18T15:47:48;0.43;;;0.35;;
76477;SDS011;65309;49.790;18.972;2022-12-18T15:52:52;0.77;;;0.77;;
76477;SDS011;65309;49.790;18.972;2022-12-18T15:57:56;1.98;;;1.40;;
76477;SDS011;65309;49.790;18.972;2022-12-18T16:03:00;1.00;;;1.00;;
76477;SDS011;65309;49.790;18.972;2022-12-18T16:08:03;3.17;;;2.13;;
76477;SDS011;65309;49.790;18.972;2022-12-18T16:13:05;3.05;;;2.83;;
76477;SDS011;65309;49.790;18.972;2022-12-18T16:18:09;2.78;;;2.58;;
76477;SDS011;65309;49.790;18.972;2022-12-18T16:23:11;4.88;;;2.35;;
76477;SDS011;65309;49.790;18.972;2022-12-18T16:28:13;5.70;;;1.92;;
76477;SDS011;65309;49.790;18.972;2022-12-18T16:33:17;1.63;;;1.23;;
76477;SDS011;65309;49.790;18.972;2022-12-18T16:38:19;2.88;;;1.45;;
76477;SDS011;65309;49.790;18.972;2022-12-18T16:43:21;3.08;;;2.35;;
76477;SDS011;65309;49.790;18.972;2022-12-18T16:48:24;0.43;;;0.43;;
76477;SDS011;65309;49.790;18.972;2022-12-18T16:53:27;1.30;;;1.23;;
76477;SDS011;65309;49.790;18.972;2022-12-18T16:58:30;0.85;;;0.80;;
76477;SDS011;65309;49.790;18.972;2022-12-18T17:03:34;0.88;;;0.88;;
76477;SDS011;65309;49.790;18.972;2022-12-18T17:08:36;0.98;;;0.98;;
76477;SDS011;65309;49.790;18.972;2022-12-18T17:13:38;1.20;;;1.10;;
76477;SDS011;65309;49.790;18.972;2022-12-18T17:18:42;0.22;;;0.22;;
76477;SDS011;65309;49.790;18.972;2022-12-18T17:23:44;0.40;;;0.40;;
76477;SDS011;65309;49.790;18.972;2022-12-18T17:28:46;0.30;;;0.30;;
76477;SDS011;65309;49.790;18.972;2022-12-18T17:33:50;1.13;;;0.73;;
76477;SDS011;65309;49.790;18.972;2022-12-18T17:38:54;1.48;;;1.38;;
76477;SDS011;65309;49.790;18.972;2022-12-18T17:43:58;1.33;;;0.95;;
76477;SDS011;65309;49.790;18.972;2022-12-18T17:49:02;2.38;;;2.28;;
76477;SDS011;65309;49.790;18.972;2022-12-18T17:54:05;0.65;;;0.65;;
76477;SDS011;65309;49.790;18.972;2022-12-18T17:59:07;1.33;;;0.75;;
76477;SDS011;65309;49.790;18.972;2022-12-18T18:04:11;2.05;;;1.88;;
76477;SDS011;65309;49.790;18.972;2022-12-18T18:09:13;0.55;;;0.55;;
76477;SDS011;65309;49.790;18.972;2022-12-18T18:14:18;2.67;;;1.17;;
76477;SDS011;65309;49.790;18.972;2022-12-18T18:19:23;0.25;;;0.25;;
76477;SDS011;65309;49.790;18.972;2022-12-18T18:24:25;0.60;;;0.60;;
76477;SDS011;65309;49.790;18.972;2022-12-18T18:29:27;1.35;;;1.25;;
76477;SDS011;65309;49.790;18.972;2022-12-18T18:34:34;1.83;;;1.27;;
76477;SDS011;65309;49.790;18.972;2022-12-18T18:39:37;3.30;;;2.50;;
76477;SDS011;65309;49.790;18.972;2022-12-18T18:44:39;2.20;;;1.50;;
76477;SDS011;65309;49.790;18.972;2022-12-18T18:49:49;2.80;;;1.02;;
76477;SDS011;65309;49.790;18.972;2022-12-18T18:54:52;2.00;;;1.58;;
76477;SDS011;65309;49.790;18.972;2022-12-18T19:00:14;0.95;;;0.65;;
76477;SDS011;65309;49.790;18.972;2022-12-18T19:05:19;0.45;;;0.45;;
76477;SDS011;65309;49.790;18.972;2022-12-18T19:10:20;1.67;;;0.88;;
76477;SDS011;65309;49.790;18.972;2022-12-18T19:15:22;1.23;;;0.77;;
76477;SDS011;65309;49.790;18.972;2022-12-18T19:20:26;0.30;;;0.30;;
76477;SDS011;65309;49.790;18.972;2022-12-18T19:25:28;0.70;;;0.40;;
76477;SDS011;65309;49.790;18.972;2022-12-18T19:30:42;1.42;;;1.33;;
76477;SDS011;65309;49.790;18.972;2022-12-18T19:35:45;0.77;;;0.77;;
76477;SDS011;65309;49.790;18.972;2022-12-18T19:40:48;0.75;;;0.75;;
76477;SDS011;65309;49.790;18.972;2022-12-18T19:45:53;1.48;;;0.70;;
76477;SDS011;65309;49.790;18.972;2022-12-18T19:50:56;0.80;;;0.80;;
76477;SDS011;65309;49.790;18.972;2022-12-18T19:56:00;0.00;;;0.00;;
76477;SDS011;65309;49.790;18.972;2022-12-18T20:01:06;0.50;;;0.50;;
76477;SDS011;65309;49.790;18.972;2022-12-18T20:06:12;2.78;;;2.58;;
76477;SDS011;65309;49.790;18.972;2022-12-18T20:11:16;2.15;;;1.58;;
76477;SDS011;65309;49.790;18.972;2022-12-18T20:16:18;1.42;;;1.33;;
76477;SDS011;65309;49.790;18.972;2022-12-18T20:21:21;2.97;;;1.90;;
76477;SDS011;65309;49.790;18.972;2022-12-18T20:26:24;1.02;;;0.93;;
76477;SDS011;65309;49.790;18.972;2022-12-18T20:31:26;0.20;;;0.20;;
76477;SDS011;65309;49.790;18.972;2022-12-18T20:36:30;0.75;;;0.75;;
76477;SDS011;65309;49.790;18.972;2022-12-18T20:41:35;0.47;;;0.40;;
76477;SDS011;65309;49.790;18.972;2022-12-18T20:46:39;0.10;;;0.10;;
76477;SDS011;65309;49.790;18.972;2022-12-18T20:51:42;1.00;;;0.88;;
76477;SDS011;65309;49.790;18.972;2022-12-18T20:56:44;1.30;;;0.35;;
76477;SDS011;65309;49.790;18.972;2022-12-18T21:01:46;0.20;;;0.20;;
76477;SDS011;65309;49.790;18.972;2022-12-18T21:06:51;2.03;;;1.38;;
76477;SDS011;65309;49.790;18.972;2022-12-18T21:12:03;0.10;;;0.10;;
76477;SDS011;65309;49.790;18.972;2022-12-18T21:17:24;0.40;;;0.40;;
76477;SDS011;65309;49.790;18.972;2022-12-18T21:22:30;4.15;;;1.60;;
76477;SDS011;65309;49.790;18.972;2022-12-18T21:27:32;0.47;;;0.47;;
76477;SDS011;65309;49.790;18.972;2022-12-18T21:32:34;0.20;;;0.20;;
76477;SDS011;65309;49.790;18.972;2022-12-18T21:37:37;0.65;;;0.60;;
76477;SDS011;65309;49.790;18.972;2022-12-18T21:42:40;0.15;;;0.15;;
76477;SDS011;65309;49.790;18.972;2022-12-18T21:48:01;0.28;;;0.28;;
76477;SDS011;65309;49.790;18.972;2022-12-18T21:53:04;0.65;;;0.43;;
76477;SDS011;65309;49.790;18.972;2022-12-18T21:58:06;0.28;;;0.28;;
76477;SDS011;65309;49.790;18.972;2022-12-18T22:03:08;0.43;;;0.32;;
76477;SDS011;65309;49.790;18.972;2022-12-18T22:08:21;0.03;;;0.03;;
76477;SDS011;65309;49.790;18.972;2022-12-18T22:13:23;0.40;;;0.28;;
76477;SDS011;65309;49.790;18.972;2022-12-18T22:18:25;0.30;;;0.30;;
76477;SDS011;65309;49.790;18.972;2022-12-18T22:23:29;0.50;;;0.50;;
76477;SDS011;65309;49.790;18.972;2022-12-18T22:28:31;0.20;;;0.20;;
76477;SDS011;65309;49.790;18.972;2022-12-18T22:33:52;0.45;;;0.45;;
76477;SDS011;65309;49.790;18.972;2022-12-18T22:38:55;14.20;;;2.80;;
76477;SDS011;65309;49.790;18.972;2022-12-18T22:43:57;28.77;;;9.68;;
76477;SDS011;65309;49.790;18.972;2022-12-18T22:48:59;47.88;;;12.90;;
76477;SDS011;65309;49.790;18.972;2022-12-18T22:54:02;3.45;;;1.20;;
76477;SDS011;65309;49.790;18.972;2022-12-18T22:59:05;8.75;;;5.93;;
76477;SDS011;65309;49.790;18.972;2022-12-18T23:04:09;11.70;;;2.45;;
76477;SDS011;65309;49.790;18.972;2022-12-18T23:09:14;0.52;;;0.52;;
76477;SDS011;65309;49.790;18.972;2022-12-18T23:14:17;0.10;;;0.10;;
76477;SDS011;65309;49.790;18.972;2022-12-18T23:19:19;0.22;;;0.22;;
76477;SDS011;65309;49.790;18.972;2022-12-18T23:24:25;1.55;;;0.60;;
76477;SDS011;65309;49.790;18.972;2022-12-18T23:29:27;4.20;;;0.50;;
76477;SDS011;65309;49.790;18.972;2022-12-18T23:34:29;0.95;;;0.85;;
76477;SDS011;65309;49.790;18.972;2022-12-18T23:39:32;0.28;;;0.28;;
76477;SDS011;65309;49.790;18.972;2022-12-18T23:44:34;0.08;;;0.08;;
76477;SDS011;65309;49.790;18.972;2022-12-18T23:49:36;1.08;;;0.85;;
76477;SDS011;65309;49.790;18.972;2022-12-18T23:54:40;1.05;;;0.95;;
76477;SDS011;65309;49.790;18.972;2022-12-18T23:59:42;0.30;;;0.30;;
